CheckWX is a tool to help pilots better visualize weather data.  It is not intended as a substitute for an official pre-flight weather briefing.

12:34:56 UTC

EDHL TAF
Lübeck Blankensee Airport
Lübeck, Germany
TAF EDHL 221100Z 2212/2221 18006KT 4500 BR BKN007 BECMG 2212/2215 7000 SCT015

Mar-22@
12:00 UTC

Mar-22 @ 12:00 UTC

Mar-22@
21:00 UTC

Mar-22 @ 21:00 UTC

TAF EDHL 221100Z 2212/2221 18006KT 4500 BR BKN007
Wind
  • 180° at 6 KTS
Conditions
Mist
Cloud Levels
  • Broken at 700' AGL

Mar-22@
12:00 UTC

Mar-22 @ 12:00 UTC

Mar-22@
21:00 UTC

Mar-22 @ 21:00 UTC

BECMG 2212/2215 7000 SCT015

Becoming

Becoming Conditions expected by Fri, Mar 22, 2019 @ 15:00 UTC

Wind
  • 180° at 6 KTS
Conditions
Mist
Cloud Levels
  • Scattered at 1,500' AGL